createdAt,value
2023-02-19T00:00:45.297Z,10.17
2023-02-19T00:01:45.278Z,10.18
2023-02-19T00:02:45.259Z,10.17
2023-02-19T00:03:45.366Z,10.18
2023-02-19T00:04:45.442Z,10.15
2023-02-19T00:05:45.275Z,10.15
2023-02-19T00:06:45.441Z,10.15
2023-02-19T00:07:45.368Z,10.17
2023-02-19T00:08:45.177Z,10.15
2023-02-19T00:09:45.194Z,10.14
2023-02-19T00:10:45.159Z,10.15
2023-02-19T00:11:45.321Z,10.17
2023-02-19T00:12:45.129Z,10.15
2023-02-19T00:13:45.240Z,10.14
2023-02-19T00:14:45.168Z,10.14
2023-02-19T00:15:45.286Z,10.14
2023-02-19T00:16:45.155Z,10.15
2023-02-19T00:17:45.150Z,10.15
2023-02-19T00:18:45.600Z,10.17
2023-02-19T00:19:45.220Z,10.17
2023-02-19T00:20:45.239Z,10.18
2023-02-19T00:21:45.250Z,10.17
2023-02-19T00:22:45.131Z,10.18
2023-02-19T00:23:45.289Z,10.17
2023-02-19T00:24:45.100Z,10.15
2023-02-19T00:25:45.194Z,10.14
2023-02-19T00:26:45.035Z,10.14
2023-02-19T00:27:45.193Z,10.14
2023-02-19T00:28:46.578Z,10.14
2023-02-19T00:29:45.180Z,10.14
2023-02-19T00:30:45.377Z,10.12
2023-02-19T00:31:45.079Z,10.14
2023-02-19T00:32:45.203Z,10.12
2023-02-19T00:33:45.067Z,10.12
2023-02-19T00:34:45.600Z,10.12
2023-02-19T00:35:44.967Z,10.10
2023-02-19T00:36:45.108Z,10.09
2023-02-19T00:37:44.909Z,10.07
2023-02-19T00:38:44.879Z,10.09
2023-02-19T00:39:45.126Z,10.06
2023-02-19T00:40:44.894Z,10.06
2023-02-19T00:41:44.868Z,10.07
2023-02-19T00:42:44.937Z,10.07
2023-02-19T00:43:45.044Z,10.06
2023-02-19T00:44:44.860Z,10.06
2023-02-19T00:45:45.144Z,10.06
2023-02-19T00:46:44.895Z,10.04
2023-02-19T00:47:44.980Z,10.04
2023-02-19T00:48:44.856Z,10.06
2023-02-19T00:49:44.773Z,10.06
2023-02-19T00:50:44.990Z,10.04
2023-02-19T00:51:44.777Z,10.04
2023-02-19T00:52:44.834Z,10.04
2023-02-19T00:53:44.927Z,10.04
2023-02-19T00:54:44.790Z,10.07
2023-02-19T00:55:44.737Z,10.04
2023-02-19T00:56:44.838Z,10.06
2023-02-19T00:57:44.674Z,10.06
2023-02-19T00:58:44.693Z,10.04
2023-02-19T00:59:44.693Z,10.04
2023-02-19T01:00:44.664Z,10.04
2023-02-19T01:01:44.892Z,10.04
2023-02-19T01:02:44.635Z,10.04
2023-02-19T01:03:44.678Z,10.04
2023-02-19T01:04:44.689Z,10.04
2023-02-19T01:05:44.621Z,10.04
2023-02-19T01:06:44.571Z,10.04
2023-02-19T01:07:44.573Z,10.04
2023-02-19T01:08:44.602Z,10.04
2023-02-19T01:09:44.573Z,10.01
2023-02-19T01:10:44.593Z,10.03
2023-02-19T01:11:44.960Z,10.04
2023-02-19T01:12:44.531Z,10.03
2023-02-19T01:13:44.548Z,10.03
2023-02-19T01:14:44.554Z,10.01
2023-02-19T01:15:44.575Z,10.04
2023-02-19T01:16:44.493Z,10.03
2023-02-19T01:17:44.511Z,10.03
2023-02-19T01:18:44.498Z,10.01
2023-02-19T01:19:44.511Z,10.03
2023-02-19T01:20:44.469Z,10.04
2023-02-19T01:21:44.745Z,10.03
2023-02-19T01:22:44.447Z,10.03
2023-02-19T01:23:44.567Z,10.03
2023-02-19T01:24:44.727Z,10.04
2023-02-19T01:25:44.570Z,10.04
2023-02-19T01:26:44.512Z,10.03
2023-02-19T01:27:44.928Z,10.04
2023-02-19T01:28:44.561Z,10.06
2023-02-19T01:29:45.315Z,10.04
2023-02-19T01:30:44.594Z,10.03
2023-02-19T01:31:44.524Z,10.04
2023-02-19T01:32:44.387Z,10.03
2023-02-19T01:33:44.398Z,10.03
2023-02-19T01:34:44.480Z,10.04
2023-02-19T01:35:44.548Z,10.04
2023-02-19T01:36:44.541Z,10.03
2023-02-19T01:37:44.375Z,10.03
2023-02-19T01:38:44.479Z,10.03
2023-02-19T01:39:44.334Z,10.03
2023-02-19T01:40:44.331Z,10.03
2023-02-19T01:41:44.418Z,10.01
2023-02-19T01:42:44.387Z,10.03
2023-02-19T01:43:44.447Z,10.01
2023-02-19T01:44:44.223Z,10.03
2023-02-19T01:45:44.406Z,10.03
2023-02-19T01:46:44.337Z,10.01
2023-02-19T01:47:44.195Z,10.00
2023-02-19T01:48:44.375Z,10.01
2023-02-19T01:49:44.218Z,10.01
2023-02-19T01:50:44.263Z,10.00
2023-02-19T01:51:44.181Z,10.00
2023-02-19T01:52:44.190Z,10.01
2023-02-19T01:53:44.457Z,9.99
2023-02-19T01:54:44.124Z,10.00
2023-02-19T01:55:44.174Z,10.00
2023-02-19T01:56:44.084Z,10.01
2023-02-19T01:57:44.135Z,10.00
2023-02-19T01:58:44.488Z,10.01
2023-02-19T01:59:44.192Z,10.01
2023-02-19T02:00:44.137Z,10.00
2023-02-19T02:01:44.289Z,10.00
2023-02-19T02:02:44.357Z,9.99
2023-02-19T02:03:44.037Z,10.00
2023-02-19T02:04:44.023Z,10.00
2023-02-19T02:05:43.993Z,9.99
2023-02-19T02:06:44.052Z,9.97
2023-02-19T02:07:43.994Z,9.99
2023-02-19T02:08:43.992Z,10.00
2023-02-19T02:09:44.078Z,9.97
2023-02-19T02:10:43.955Z,9.99
2023-02-19T02:11:43.971Z,9.97
2023-02-19T02:12:43.913Z,9.97
2023-02-19T02:13:44.024Z,9.96
2023-02-19T02:14:43.973Z,9.96
2023-02-19T02:15:43.962Z,9.97
2023-02-19T02:16:43.871Z,9.97
2023-02-19T02:17:44.064Z,9.97
2023-02-19T02:18:43.968Z,9.97
2023-02-19T02:19:44.085Z,9.96
2023-02-19T02:20:43.883Z,9.99
2023-02-19T02:21:43.849Z,9.97
2023-02-19T02:22:44.015Z,9.97
2023-02-19T02:23:43.873Z,9.96
2023-02-19T02:24:43.954Z,9.96
2023-02-19T02:25:44.138Z,9.96
2023-02-19T02:26:43.785Z,9.94
2023-02-19T02:27:43.792Z,9.93
2023-02-19T02:28:44.119Z,9.93
2023-02-19T02:29:43.920Z,9.94
2023-02-19T02:30:44.092Z,9.94
2023-02-19T02:31:43.858Z,9.93
2023-02-19T02:32:43.803Z,9.93
2023-02-19T02:33:43.756Z,9.91
2023-02-19T02:34:43.681Z,9.93
2023-02-19T02:35:43.916Z,9.91
2023-02-19T02:36:43.737Z,9.93
2023-02-19T02:37:43.885Z,9.93
2023-02-19T02:38:43.794Z,9.91
2023-02-19T02:39:43.995Z,9.93
2023-02-19T02:40:43.868Z,9.89
2023-02-19T02:41:43.681Z,9.89
2023-02-19T02:42:43.798Z,9.91
2023-02-19T02:43:43.613Z,9.89
2023-02-19T02:44:43.896Z,9.89
2023-02-19T02:45:43.789Z,9.89
2023-02-19T02:46:43.582Z,9.89
2023-02-19T02:47:43.698Z,9.89
2023-02-19T02:48:43.793Z,9.89
2023-02-19T02:49:43.866Z,9.89
2023-02-19T02:50:43.810Z,9.88
2023-02-19T02:51:43.846Z,9.88
2023-02-19T02:52:43.642Z,9.88
2023-02-19T02:53:43.509Z,9.88
2023-02-19T02:54:43.505Z,9.88
2023-02-19T02:55:43.651Z,9.86
2023-02-19T02:56:43.511Z,9.86
2023-02-19T02:57:44.038Z,9.85
2023-02-19T02:58:43.594Z,9.85
2023-02-19T02:59:44.097Z,9.85
2023-02-19T03:00:43.647Z,9.85
2023-02-19T03:01:43.625Z,9.83
2023-02-19T03:02:43.437Z,9.85
2023-02-19T03:03:43.626Z,9.85
2023-02-19T03:04:43.631Z,9.86
2023-02-19T03:05:43.423Z,9.86
2023-02-19T03:06:43.551Z,9.83
2023-02-19T03:07:43.511Z,9.85
2023-02-19T03:08:43.687Z,9.83
2023-02-19T03:09:43.421Z,9.85
2023-02-19T03:10:43.543Z,9.83
2023-02-19T03:11:43.575Z,9.82
2023-02-19T03:12:43.301Z,9.82
2023-02-19T03:13:43.308Z,9.82
2023-02-19T03:14:43.279Z,9.82
2023-02-19T03:15:43.326Z,9.83
2023-02-19T03:16:43.353Z,9.82
2023-02-19T03:17:43.734Z,9.81
2023-02-19T03:18:43.321Z,9.82
2023-02-19T03:19:43.313Z,9.81
2023-02-19T03:20:43.239Z,9.82
2023-02-19T03:21:43.242Z,9.81
2023-02-19T03:22:43.409Z,9.81
2023-02-19T03:23:43.664Z,9.78
2023-02-19T03:24:43.668Z,9.79
2023-02-19T03:25:43.319Z,9.79
2023-02-19T03:26:43.270Z,9.78
2023-02-19T03:27:43.331Z,9.78
2023-02-19T03:28:43.553Z,9.78
2023-02-19T03:29:43.319Z,9.76
2023-02-19T03:30:43.231Z,9.75
2023-02-19T03:31:43.252Z,9.76
2023-02-19T03:32:43.123Z,9.75
2023-02-19T03:33:43.126Z,9.75
2023-02-19T03:34:43.084Z,9.76
2023-02-19T03:35:43.124Z,9.75
2023-02-19T03:36:43.093Z,9.71
2023-02-19T03:37:43.118Z,9.71
2023-02-19T03:38:43.079Z,9.73
2023-02-19T03:39:43.062Z,9.73
2023-02-19T03:40:43.299Z,9.73
2023-02-19T03:41:43.050Z,9.71
2023-02-19T03:42:43.051Z,9.71
2023-02-19T03:43:43.015Z,9.71
2023-02-19T03:44:42.993Z,9.70
2023-02-19T03:45:43.083Z,9.70
2023-02-19T03:46:43.138Z,9.70
2023-02-19T03:47:43.000Z,9.68
2023-02-19T03:48:42.972Z,9.67
2023-02-19T03:49:42.931Z,9.67
2023-02-19T03:50:42.967Z,9.66
2023-02-19T03:51:43.140Z,9.67
2023-02-19T03:52:42.926Z,9.66
2023-02-19T03:53:42.964Z,9.68
2023-02-19T03:54:42.877Z,9.64
2023-02-19T03:55:43.069Z,9.66
2023-02-19T03:56:42.875Z,9.64
2023-02-19T03:57:43.059Z,9.64
2023-02-19T03:58:42.841Z,9.66
2023-02-19T03:59:42.855Z,9.64
2023-02-19T04:00:42.902Z,9.66
2023-02-19T04:01:43.008Z,9.64
2023-02-19T04:02:42.802Z,9.61
2023-02-19T04:03:42.956Z,9.64
2023-02-19T04:04:43.041Z,9.63
2023-02-19T04:05:43.118Z,9.64
2023-02-19T04:06:42.916Z,9.64
2023-02-19T04:07:43.001Z,9.64
2023-02-19T04:08:42.920Z,9.63
2023-02-19T04:09:42.875Z,9.64
2023-02-19T04:10:42.815Z,9.63
2023-02-19T04:11:42.807Z,9.63
2023-02-19T04:12:42.721Z,9.61
2023-02-19T04:13:43.009Z,9.61
2023-02-19T04:14:42.837Z,9.60
2023-02-19T04:15:42.746Z,9.58
2023-02-19T04:16:42.816Z,9.58
2023-02-19T04:17:42.695Z,9.57
2023-02-19T04:18:42.654Z,9.58
2023-02-19T04:19:42.723Z,9.57
2023-02-19T04:20:42.751Z,9.57
2023-02-19T04:21:43.184Z,9.57
2023-02-19T04:22:42.607Z,9.57
2023-02-19T04:23:42.620Z,9.56
2023-02-19T04:24:42.594Z,9.57
2023-02-19T04:25:42.573Z,9.56
2023-02-19T04:26:42.978Z,9.56
2023-02-19T04:27:42.602Z,9.58
2023-02-19T04:28:42.566Z,9.58
2023-02-19T04:29:42.766Z,9.56
2023-02-19T04:30:42.668Z,9.56
2023-02-19T04:31:42.628Z,9.57
2023-02-19T04:32:42.597Z,9.53
2023-02-19T04:33:42.729Z,9.56
2023-02-19T04:34:42.470Z,9.56
2023-02-19T04:35:42.672Z,9.56
2023-02-19T04:36:42.488Z,9.53
2023-02-19T04:37:43.002Z,9.53
2023-02-19T04:38:42.488Z,9.52
2023-02-19T04:39:42.525Z,9.56
2023-02-19T04:40:42.451Z,9.52
2023-02-19T04:41:42.464Z,9.52
2023-02-19T04:42:42.655Z,9.50
2023-02-19T04:43:42.383Z,9.49
2023-02-19T04:44:42.597Z,9.49
2023-02-19T04:45:42.516Z,9.46
2023-02-19T04:46:43.217Z,9.46
2023-02-19T04:47:42.462Z,9.43
2023-02-19T04:48:42.420Z,9.45
2023-02-19T04:49:42.358Z,9.45
2023-02-19T04:50:42.521Z,9.43
2023-02-19T04:51:42.347Z,9.43
2023-02-19T04:52:42.573Z,9.42
2023-02-19T04:53:42.336Z,9.40
2023-02-19T04:54:42.858Z,9.42
2023-02-19T04:55:42.286Z,9.42
2023-02-19T04:56:42.362Z,9.42
2023-02-19T04:57:42.378Z,9.43
2023-02-19T04:58:42.454Z,9.40
2023-02-19T04:59:42.676Z,9.42
2023-02-19T05:00:42.309Z,9.42
2023-02-19T05:01:42.491Z,9.42
2023-02-19T05:02:42.369Z,9.42
2023-02-19T05:03:42.505Z,9.43
2023-02-19T05:04:42.251Z,9.43
2023-02-19T05:05:42.435Z,9.43
2023-02-19T05:06:42.183Z,9.43
2023-02-19T05:07:42.178Z,9.43
2023-02-19T05:08:42.145Z,9.43
2023-02-19T05:09:42.781Z,9.43
2023-02-19T05:10:42.570Z,9.43
2023-02-19T05:11:42.310Z,9.42
2023-02-19T05:12:42.099Z,9.42
2023-02-19T05:13:42.235Z,9.45
2023-02-19T05:14:42.081Z,9.43
2023-02-19T05:15:42.250Z,9.43
2023-02-19T05:16:42.205Z,9.45
2023-02-19T05:17:42.287Z,9.46
2023-02-19T05:18:42.082Z,9.42
2023-02-19T05:19:42.210Z,9.45
2023-02-19T05:20:42.120Z,9.43
2023-02-19T05:21:42.058Z,9.42
2023-02-19T05:22:42.295Z,9.42
2023-02-19T05:23:42.384Z,9.42
2023-02-19T05:24:42.165Z,9.40
2023-02-19T05:25:42.192Z,9.40
2023-02-19T05:26:44.607Z,9.40
2023-02-19T05:27:41.949Z,9.42
2023-02-19T05:28:41.983Z,9.40
2023-02-19T05:29:41.935Z,9.40
2023-02-19T05:30:41.905Z,9.42
2023-02-19T05:31:41.992Z,9.40
2023-02-19T05:32:41.990Z,9.42
2023-02-19T05:33:41.845Z,9.40
2023-02-19T05:34:41.872Z,9.40
2023-02-19T05:35:41.860Z,9.40
2023-02-19T05:36:41.863Z,9.42
2023-02-19T05:37:41.843Z,9.42
2023-02-19T05:38:41.850Z,9.42
2023-02-19T05:39:41.789Z,9.42
2023-02-19T05:40:41.810Z,9.42
2023-02-19T05:41:41.858Z,9.42
2023-02-19T05:42:41.858Z,9.42
2023-02-19T05:43:41.844Z,9.42
2023-02-19T05:44:41.929Z,9.42
2023-02-19T05:45:41.801Z,9.39
2023-02-19T05:46:42.070Z,9.38
2023-02-19T05:47:41.798Z,9.39
2023-02-19T05:48:42.003Z,9.38
2023-02-19T05:49:41.759Z,9.39
2023-02-19T05:50:41.698Z,9.40
2023-02-19T05:51:41.687Z,9.40
2023-02-19T05:52:41.728Z,9.42
2023-02-19T05:53:41.806Z,9.40
2023-02-19T05:54:41.716Z,9.40
2023-02-19T05:55:41.683Z,9.40
2023-02-19T05:56:41.894Z,9.39
2023-02-19T05:57:43.552Z,9.39
2023-02-19T05:58:41.686Z,9.38
2023-02-19T05:59:41.690Z,9.35
2023-02-19T06:00:41.783Z,9.38
2023-02-19T06:01:41.671Z,9.34
2023-02-19T06:02:41.896Z,9.35
2023-02-19T06:03:41.695Z,9.35
2023-02-19T06:04:41.771Z,9.35
2023-02-19T06:05:41.588Z,9.35
2023-02-19T06:06:41.727Z,9.34
2023-02-19T06:07:41.719Z,9.32
2023-02-19T06:08:41.744Z,9.31
2023-02-19T06:09:41.742Z,9.31
2023-02-19T06:10:41.579Z,9.32
2023-02-19T06:11:41.692Z,9.31
2023-02-19T06:12:41.539Z,9.30
2023-02-19T06:13:41.646Z,9.30
2023-02-19T06:14:41.702Z,9.30
2023-02-19T06:15:41.539Z,9.30
2023-02-19T06:16:41.434Z,9.30
2023-02-19T06:17:41.514Z,9.30
2023-02-19T06:18:41.597Z,9.28
2023-02-19T06:19:41.405Z,9.30
2023-02-19T06:20:41.577Z,9.28
2023-02-19T06:21:41.387Z,9.28
2023-02-19T06:22:41.501Z,9.30
2023-02-19T06:23:41.512Z,9.28
2023-02-19T06:24:41.391Z,9.27
2023-02-19T06:25:41.409Z,9.25
2023-02-19T06:26:42.203Z,9.27
2023-02-19T06:27:41.345Z,9.27
2023-02-19T06:28:41.508Z,9.25
2023-02-19T06:29:41.407Z,9.25
2023-02-19T06:30:41.523Z,9.25
2023-02-19T06:31:41.563Z,9.27
2023-02-19T06:32:41.638Z,9.24
2023-02-19T06:33:41.482Z,9.25
2023-02-19T06:34:41.268Z,9.24
2023-02-19T06:35:41.272Z,9.25
2023-02-19T06:36:41.317Z,9.24
2023-02-19T06:37:41.383Z,9.24
2023-02-19T06:38:41.413Z,9.24
2023-02-19T06:39:41.257Z,9.23
2023-02-19T06:40:41.252Z,9.24
2023-02-19T06:41:41.210Z,9.24
2023-02-19T06:42:41.250Z,9.24
2023-02-19T06:43:41.415Z,9.23
2023-02-19T06:44:41.172Z,9.23
2023-02-19T06:45:41.218Z,9.23
2023-02-19T06:46:41.262Z,9.21
2023-02-19T06:47:41.146Z,9.21
2023-02-19T06:48:41.166Z,9.21
2023-02-19T06:49:41.292Z,9.20
2023-02-19T06:50:41.132Z,9.21
2023-02-19T06:51:41.205Z,9.20
2023-02-19T06:52:41.081Z,9.20
2023-02-19T06:53:41.323Z,9.20
2023-02-19T06:54:41.093Z,9.20
2023-02-19T06:55:41.068Z,9.20
2023-02-19T06:56:41.148Z,9.20
2023-02-19T06:57:41.225Z,9.18
2023-02-19T06:58:41.196Z,9.20
2023-02-19T06:59:41.103Z,9.20
2023-02-19T07:00:41.154Z,9.18
2023-02-19T07:01:41.300Z,9.18
2023-02-19T07:02:41.025Z,9.16
2023-02-19T07:03:40.971Z,9.15
2023-02-19T07:04:41.088Z,9.15
2023-02-19T07:05:41.008Z,9.13
2023-02-19T07:06:41.055Z,9.10
2023-02-19T07:07:41.312Z,9.13
2023-02-19T07:08:40.926Z,9.10
2023-02-19T07:09:41.070Z,9.12
2023-02-19T07:10:41.036Z,9.12
2023-02-19T07:11:40.921Z,9.12
2023-02-19T07:12:40.904Z,9.09
2023-02-19T07:13:40.884Z,9.10
2023-02-19T07:14:41.103Z,9.10
2023-02-19T07:15:40.947Z,9.10
2023-02-19T07:16:40.895Z,9.10
2023-02-19T07:17:41.077Z,9.10
2023-02-19T07:18:40.837Z,9.12
2023-02-19T07:19:40.822Z,9.10
2023-02-19T07:20:41.009Z,9.10
2023-02-19T07:21:40.823Z,9.12
2023-02-19T07:22:40.817Z,9.12
2023-02-19T07:23:40.913Z,9.12
2023-02-19T07:24:40.794Z,9.10
2023-02-19T07:25:40.746Z,9.13
2023-02-19T07:26:40.738Z,9.13
2023-02-19T07:27:40.712Z,9.15
2023-02-19T07:28:41.261Z,9.16
2023-02-19T07:29:40.777Z,9.16
2023-02-19T07:30:40.904Z,9.16
2023-02-19T07:31:40.830Z,9.20
2023-02-19T07:32:40.753Z,9.21
2023-02-19T07:33:40.893Z,9.18
2023-02-19T07:34:40.659Z,9.16
2023-02-19T07:35:40.651Z,9.21
2023-02-19T07:36:40.613Z,9.21
2023-02-19T07:37:40.606Z,9.23
2023-02-19T07:38:40.650Z,9.24
2023-02-19T07:39:40.614Z,9.30
2023-02-19T07:40:40.627Z,9.30
2023-02-19T07:41:40.695Z,9.28
2023-02-19T07:42:40.578Z,9.28
2023-02-19T07:43:40.619Z,9.27
2023-02-19T07:44:40.565Z,9.27
2023-02-19T07:45:40.575Z,9.27
2023-02-19T07:46:40.534Z,9.27
2023-02-19T07:47:40.559Z,9.27
2023-02-19T07:48:40.550Z,9.31
2023-02-19T07:49:40.668Z,9.32
2023-02-19T07:50:40.662Z,9.40
2023-02-19T07:51:40.635Z,9.40
2023-02-19T07:52:40.640Z,9.45
2023-02-19T07:53:40.740Z,9.40
2023-02-19T07:54:40.598Z,9.40
2023-02-19T07:55:40.452Z,9.38
2023-02-19T07:56:40.453Z,9.35
2023-02-19T07:57:40.450Z,9.38
2023-02-19T07:58:40.444Z,9.38
2023-02-19T07:59:40.427Z,9.38
2023-02-19T08:00:40.585Z,9.38
2023-02-19T08:01:40.430Z,9.39
2023-02-19T08:02:40.407Z,9.45
2023-02-19T08:03:40.479Z,9.48
2023-02-19T08:04:40.428Z,9.52
2023-02-19T08:05:40.402Z,9.57
2023-02-19T08:06:40.365Z,9.60
2023-02-19T08:07:40.365Z,9.63
2023-02-19T08:08:40.475Z,9.57
2023-02-19T08:09:40.628Z,9.53
2023-02-19T08:10:40.538Z,9.53
2023-02-19T08:11:40.395Z,9.52
2023-02-19T08:12:40.299Z,9.49
2023-02-19T08:13:40.412Z,9.50
2023-02-19T08:14:40.376Z,9.52
2023-02-19T08:15:40.249Z,9.52
2023-02-19T08:16:43.274Z,9.50
2023-02-19T08:17:40.809Z,9.53
2023-02-19T08:18:40.859Z,9.56
2023-02-19T08:19:40.228Z,9.57
2023-02-19T08:20:40.214Z,9.57
2023-02-19T08:21:40.344Z,9.58
2023-02-19T08:22:40.195Z,9.60
2023-02-19T08:23:40.191Z,9.61
2023-02-19T08:24:40.380Z,9.63
2023-02-19T08:25:40.145Z,9.63
2023-02-19T08:26:40.392Z,9.68
2023-02-19T08:27:40.363Z,9.73
2023-02-19T08:28:40.125Z,9.81
2023-02-19T08:29:40.149Z,9.86
2023-02-19T08:30:40.259Z,9.86
2023-02-19T08:31:40.249Z,9.83
2023-02-19T08:32:40.096Z,9.82
2023-02-19T08:33:40.076Z,9.82
2023-02-19T08:34:40.095Z,9.82
2023-02-19T08:35:40.125Z,9.86
2023-02-19T08:36:40.170Z,9.88
2023-02-19T08:37:40.359Z,9.91
2023-02-19T08:38:40.130Z,9.99
2023-02-19T08:39:40.025Z,10.00
2023-02-19T08:40:40.256Z,9.97
2023-02-19T08:41:40.162Z,9.94
2023-02-19T08:42:40.409Z,9.86
2023-02-19T08:43:40.517Z,9.83
2023-02-19T08:44:40.242Z,9.81
2023-02-19T08:45:40.175Z,9.75
2023-02-19T08:46:39.945Z,9.71
2023-02-19T08:47:39.997Z,9.71
2023-02-19T08:48:39.920Z,9.70
2023-02-19T08:49:40.142Z,9.71
2023-02-19T08:50:40.152Z,9.79
2023-02-19T08:51:39.889Z,9.89
2023-02-19T08:52:39.954Z,9.97
2023-02-19T08:53:40.018Z,10.03
2023-02-19T08:54:39.882Z,10.07
2023-02-19T08:55:39.871Z,10.04
2023-02-19T08:56:39.855Z,10.07
2023-02-19T08:57:39.829Z,10.06
2023-02-19T08:58:40.045Z,10.04
2023-02-19T08:59:39.851Z,10.06
2023-02-19T09:00:39.820Z,10.07
2023-02-19T09:01:40.138Z,10.06
2023-02-19T09:02:39.943Z,10.06
2023-02-19T09:03:39.761Z,10.04
2023-02-19T09:04:39.837Z,10.06
2023-02-19T09:05:39.894Z,10.09
2023-02-19T09:06:40.197Z,10.07
2023-02-19T09:07:40.119Z,10.07
2023-02-19T09:08:39.873Z,10.04
2023-02-19T09:09:39.800Z,10.06
2023-02-19T09:10:40.018Z,10.01
2023-02-19T09:11:39.723Z,10.04
2023-02-19T09:12:39.675Z,10.01
2023-02-19T09:13:40.056Z,10.03
2023-02-19T09:14:39.648Z,9.97
2023-02-19T09:15:39.826Z,9.99
2023-02-19T09:16:40.457Z,9.94
2023-02-19T09:17:39.797Z,9.99
2023-02-19T09:18:39.876Z,10.00
2023-02-19T09:19:39.622Z,10.00
2023-02-19T09:20:39.641Z,10.01
2023-02-19T09:21:39.602Z,10.06
2023-02-19T09:22:39.738Z,10.04
2023-02-19T09:23:39.639Z,10.09
2023-02-19T09:24:39.806Z,10.14
2023-02-19T09:25:39.553Z,10.10
2023-02-19T09:26:39.629Z,10.10
2023-02-19T09:27:39.582Z,10.09
2023-02-19T09:28:39.502Z,10.10
2023-02-19T09:29:39.903Z,10.15
2023-02-19T09:30:39.675Z,10.19
2023-02-19T09:31:39.858Z,10.18
2023-02-19T09:32:39.974Z,10.17
2023-02-19T09:33:39.630Z,10.09
2023-02-19T09:34:39.439Z,10.04
2023-02-19T09:35:39.507Z,10.04
2023-02-19T09:36:39.468Z,10.01
2023-02-19T09:37:39.431Z,10.00
2023-02-19T09:38:39.549Z,10.00
2023-02-19T09:39:39.783Z,9.99
2023-02-19T09:40:39.423Z,9.93
2023-02-19T09:41:39.436Z,9.91
2023-02-19T09:42:39.412Z,9.94
2023-02-19T09:43:39.356Z,9.96
2023-02-19T09:44:39.533Z,9.99
2023-02-19T09:45:39.360Z,9.99
2023-02-19T09:46:39.593Z,10.01
2023-02-19T09:47:39.345Z,10.07
2023-02-19T09:48:39.458Z,10.14
2023-02-19T09:49:39.437Z,10.26
2023-02-19T09:50:39.299Z,10.47
2023-02-19T09:51:39.299Z,10.68
2023-02-19T09:52:39.477Z,10.92
2023-02-19T09:53:39.339Z,11.02
2023-02-19T09:54:39.280Z,11.09
2023-02-19T09:55:39.282Z,11.09
2023-02-19T09:56:39.590Z,11.17
2023-02-19T09:57:39.417Z,11.41
2023-02-19T09:58:39.269Z,11.57
2023-02-19T09:59:39.304Z,11.70
2023-02-19T10:00:39.190Z,11.67
2023-02-19T10:01:39.456Z,11.64
2023-02-19T10:02:39.275Z,11.72
2023-02-19T10:03:39.302Z,11.74
2023-02-19T10:04:39.278Z,11.61
2023-02-19T10:05:39.361Z,11.50
2023-02-19T10:06:39.255Z,11.32
2023-02-19T10:07:39.350Z,11.36
2023-02-19T10:08:39.293Z,11.49
2023-02-19T10:09:39.093Z,11.43
2023-02-19T10:10:39.121Z,11.39
2023-02-19T10:11:39.354Z,11.41
2023-02-19T10:12:39.173Z,11.36
2023-02-19T10:13:39.144Z,11.34
2023-02-19T10:14:39.074Z,11.32
2023-02-19T10:15:39.120Z,11.27
2023-02-19T10:16:39.035Z,11.28
2023-02-19T10:17:39.318Z,11.46
2023-02-19T10:18:39.128Z,11.86
2023-02-19T10:19:38.971Z,11.80
2023-02-19T10:20:39.025Z,11.72
2023-02-19T10:21:39.159Z,11.61
2023-02-19T10:22:39.129Z,11.56
2023-02-19T10:23:38.984Z,11.47
2023-02-19T10:24:39.559Z,11.41
2023-02-19T10:25:38.910Z,11.28
2023-02-19T10:26:38.930Z,11.21
2023-02-19T10:27:38.883Z,11.19
2023-02-19T10:28:38.880Z,11.13
2023-02-19T10:29:40.031Z,10.98
2023-02-19T10:30:38.920Z,10.94
2023-02-19T10:31:39.090Z,10.80
2023-02-19T10:32:38.898Z,10.86
2023-02-19T10:33:39.048Z,10.92
2023-02-19T10:34:39.403Z,10.91
2023-02-19T10:35:38.935Z,10.96
2023-02-19T10:36:39.253Z,10.98
2023-02-19T10:37:38.923Z,11.03
2023-02-19T10:38:38.830Z,11.09
2023-02-19T10:39:38.819Z,11.13
2023-02-19T10:40:38.800Z,11.21
2023-02-19T10:41:39.010Z,11.21
2023-02-19T10:42:39.142Z,11.21
2023-02-19T10:43:38.870Z,11.29
2023-02-19T10:44:39.036Z,11.41
2023-02-19T10:45:38.857Z,11.57
2023-02-19T10:46:39.043Z,11.71
2023-02-19T10:47:38.824Z,12.09
2023-02-19T10:48:38.747Z,12.60
2023-02-19T10:49:38.741Z,12.66
2023-02-19T10:50:39.390Z,12.78
2023-02-19T10:51:38.940Z,12.78
2023-02-19T10:52:38.706Z,12.81
2023-02-19T10:53:38.778Z,12.96
2023-02-19T10:54:39.191Z,12.93
2023-02-19T10:55:38.784Z,12.95
2023-02-19T10:56:38.984Z,12.99
2023-02-19T10:57:38.802Z,13.09
2023-02-19T10:58:38.813Z,13.18
2023-02-19T10:59:38.644Z,13.21
2023-02-19T11:00:38.759Z,13.07
2023-02-19T11:01:38.665Z,13.03
2023-02-19T11:02:38.847Z,12.95
2023-02-19T11:03:38.592Z,12.79
2023-02-19T11:04:38.819Z,12.63
2023-02-19T11:05:38.630Z,12.49
2023-02-19T11:06:38.656Z,12.33
2023-02-19T11:07:38.511Z,12.13
2023-02-19T11:08:38.514Z,12.09
2023-02-19T11:09:38.688Z,12.08
2023-02-19T11:10:38.555Z,12.23
2023-02-19T11:11:38.706Z,12.27
2023-02-19T11:12:38.460Z,12.48
2023-02-19T11:13:38.437Z,12.38
2023-02-19T11:14:38.404Z,12.26
2023-02-19T11:15:38.426Z,12.23
2023-02-19T11:16:38.399Z,12.29
2023-02-19T11:17:38.410Z,12.27
2023-02-19T11:18:38.417Z,12.23
2023-02-19T11:19:38.444Z,12.20
2023-02-19T11:20:38.350Z,12.23
2023-02-19T11:21:38.363Z,12.26
2023-02-19T11:22:38.417Z,12.38
2023-02-19T11:23:38.568Z,12.44
2023-02-19T11:24:38.380Z,12.30
2023-02-19T11:25:38.314Z,12.19
2023-02-19T11:26:38.336Z,12.20
2023-02-19T11:27:38.311Z,12.23
2023-02-19T11:28:38.308Z,12.24
2023-02-19T11:29:38.289Z,12.15
2023-02-19T11:30:38.419Z,12.12
2023-02-19T11:31:38.397Z,12.05
2023-02-19T11:32:38.263Z,11.99
2023-02-19T11:33:38.250Z,11.96
2023-02-19T11:34:38.466Z,11.97
2023-02-19T11:35:38.247Z,11.94
2023-02-19T11:36:38.224Z,12.05
2023-02-19T11:37:38.208Z,12.23
2023-02-19T11:38:38.213Z,12.23
2023-02-19T11:39:38.379Z,12.26
2023-02-19T11:40:38.213Z,12.21
2023-02-19T11:41:38.199Z,12.15
2023-02-19T11:42:38.179Z,12.12
2023-02-19T11:43:38.233Z,12.29
2023-02-19T11:44:38.317Z,12.19
2023-02-19T11:45:38.111Z,12.19
2023-02-19T11:46:38.355Z,12.20
2023-02-19T11:47:38.159Z,12.19
2023-02-19T11:48:38.228Z,12.24
2023-02-19T11:49:38.101Z,12.24
2023-02-19T11:50:38.254Z,12.24
2023-02-19T11:51:38.219Z,12.24
2023-02-19T11:52:38.082Z,12.12
2023-02-19T11:53:38.262Z,12.12
2023-02-19T11:54:38.360Z,12.11
2023-02-19T11:55:38.164Z,12.13
2023-02-19T11:56:38.308Z,12.05
2023-02-19T11:57:38.180Z,12.01
2023-02-19T11:58:38.167Z,11.90
2023-02-19T11:59:38.110Z,11.83
2023-02-19T12:00:38.180Z,11.67
2023-02-19T12:01:38.129Z,11.56
2023-02-19T12:02:38.249Z,11.52
2023-02-19T12:03:37.934Z,11.50
2023-02-19T12:04:38.158Z,11.50
2023-02-19T12:05:38.035Z,11.54
2023-02-19T12:06:37.897Z,11.56
2023-02-19T12:07:38.087Z,11.61
2023-02-19T12:08:38.050Z,11.71
2023-02-19T12:09:38.155Z,11.85
2023-02-19T12:10:37.899Z,12.04
2023-02-19T12:11:38.070Z,12.19
2023-02-19T12:12:38.104Z,12.38
2023-02-19T12:13:37.902Z,12.42
2023-02-19T12:14:37.854Z,12.41
2023-02-19T12:15:38.052Z,12.39
2023-02-19T12:16:38.224Z,12.26
2023-02-19T12:17:37.837Z,12.19
2023-02-19T12:18:37.910Z,12.15
2023-02-19T12:19:37.806Z,12.19
2023-02-19T12:20:37.753Z,12.20
2023-02-19T12:21:37.774Z,12.24
2023-02-19T12:22:37.808Z,12.27
2023-02-19T12:23:37.769Z,12.20
2023-02-19T12:24:37.753Z,12.11
2023-02-19T12:25:37.745Z,11.90
2023-02-19T12:26:37.733Z,11.75
2023-02-19T12:27:37.935Z,11.62
2023-02-19T12:28:37.703Z,11.52
2023-02-19T12:29:37.872Z,11.36
2023-02-19T12:30:37.691Z,11.20
2023-02-19T12:31:37.678Z,11.13
2023-02-19T12:32:37.708Z,11.11
2023-02-19T12:33:37.646Z,11.13
2023-02-19T12:34:37.630Z,11.14
2023-02-19T12:35:37.621Z,11.19
2023-02-19T12:36:37.679Z,11.24
2023-02-19T12:37:37.634Z,11.28
2023-02-19T12:38:37.605Z,11.31
2023-02-19T12:39:37.573Z,11.38
2023-02-19T12:40:37.664Z,11.47
2023-02-19T12:41:37.726Z,11.59
2023-02-19T12:42:37.564Z,12.06
2023-02-19T12:43:37.594Z,12.21
2023-02-19T12:44:37.540Z,12.23
2023-02-19T12:45:37.569Z,12.34
2023-02-19T12:46:37.521Z,12.56
2023-02-19T12:47:37.619Z,12.41
2023-02-19T12:48:37.708Z,12.39
2023-02-19T12:49:37.554Z,12.49
2023-02-19T12:50:37.506Z,12.49
2023-02-19T12:51:37.453Z,12.54
2023-02-19T12:52:37.537Z,12.51
2023-02-19T12:53:37.550Z,12.45
2023-02-19T12:54:37.724Z,12.30
2023-02-19T12:55:37.426Z,12.13
2023-02-19T12:56:37.428Z,12.08
2023-02-19T12:57:37.483Z,12.02
2023-02-19T12:58:37.634Z,11.87
2023-02-19T12:59:37.543Z,11.85
2023-02-19T13:00:37.576Z,11.82
2023-02-19T13:01:37.495Z,11.83
2023-02-19T13:02:37.576Z,11.77
2023-02-19T13:03:37.635Z,11.70
2023-02-19T13:04:37.369Z,11.67
2023-02-19T13:05:37.431Z,11.72
2023-02-19T13:06:37.397Z,11.68